Time;durP1;ratioP1;P1;durP2;ratioP2;P2;SDS_P1;SDS_P2;PMS_P1;PMS_P2;Temp;Humidity;BMP_temperature;BMP_pressure;BME280_temperature;BME280_humidity;BME280_pressure;Samples;Min_cycle;Max_cycle;Signal;HPM_P1;HPM_P2
2022/03/02 00:01:36;;;;;;;27.02;9.20;;;;;;;0.88;100.00;98921.63;5000691;28;20265;-54
2022/03/02 00:04:02;;;;;;;29.90;10.05;;;;;;;0.64;100.00;98929.88;5003825;28;20454;-53
2022/03/02 00:06:27;;;;;;;35.20;10.73;;;;;;;0.58;100.00;98940.91;5001715;28;20188;-54
2022/03/02 00:08:52;;;;;;;40.50;11.90;;;;;;;0.16;100.00;98929.19;5005471;28;20522;-54
2022/03/02 00:11:18;;;;;;;34.63;9.82;;;;;;;0.13;100.00;98940.25;5006505;28;20382;-53
2022/03/02 00:13:44;;;;;;;34.35;11.18;;;;;;;0.06;100.00;98933.31;5005758;28;20052;-55
2022/03/02 00:16:09;;;;;;;34.80;9.85;;;;;;;-0.09;100.00;98938.16;5005072;28;20050;-53
2022/03/02 00:18:35;;;;;;;33.00;10.35;;;;;;;0.01;100.00;98939.19;5005998;28;20048;-55
2022/03/02 00:21:00;;;;;;;46.97;11.57;;;;;;;-0.09;100.00;98936.50;5003775;28;20145;-53
2022/03/02 00:23:26;;;;;;;35.50;10.63;;;;;;;0.03;100.00;98934.97;5004664;28;20022;-53
2022/03/02 00:25:51;;;;;;;33.90;10.43;;;;;;;-0.08;100.00;98932.22;5004876;28;20107;-53
2022/03/02 00:28:16;;;;;;;32.15;10.23;;;;;;;-0.18;100.00;98923.50;5005555;28;20105;-53
2022/03/02 00:30:42;;;;;;;38.67;10.95;;;;;;;-0.31;100.00;98930.13;5005129;28;20038;-53
2022/03/02 00:33:08;;;;;;;34.33;10.25;;;;;;;-0.30;100.00;98926.72;5005632;28;20473;-54
2022/03/02 00:35:34;;;;;;;35.25;10.02;;;;;;;-0.18;100.00;98920.06;5005279;28;20102;-53
2022/03/02 00:38:02;;;;;;;38.30;10.43;;;;;;;-0.46;100.00;98904.22;5004958;28;20124;-52
2022/03/02 00:40:28;;;;;;;36.28;10.55;;;;;;;-0.57;100.00;98892.91;5004419;28;20148;-53
2022/03/02 00:42:54;;;;;;;33.38;10.40;;;;;;;-1.01;100.00;98892.13;5003007;28;20026;-53
2022/03/02 00:45:19;;;;;;;38.15;10.88;;;;;;;-0.72;100.00;98889.22;5004479;28;20029;-54
2022/03/02 00:47:45;;;;;;;31.05;8.90;;;;;;;-0.51;100.00;98887.91;5004409;28;20553;-52
2022/03/02 00:50:11;;;;;;;30.98;8.40;;;;;;;0.28;100.00;98887.47;5007143;28;20018;-56
2022/03/02 00:52:37;;;;;;;32.38;8.65;;;;;;;0.75;100.00;98882.97;5005138;28;20022;-56
2022/03/02 00:55:03;;;;;;;31.30;9.63;;;;;;;0.28;100.00;98877.19;5004644;28;20026;-57
2022/03/02 00:57:29;;;;;;;38.25;11.48;;;;;;;-0.10;100.00;98874.91;5004742;28;20041;-54
2022/03/02 00:59:54;;;;;;;34.80;8.73;;;;;;;0.36;100.00;98870.44;5005680;28;20640;-55
2022/03/02 01:02:19;;;;;;;32.72;9.35;;;;;;;0.44;100.00;98881.69;5006042;28;20062;-54
2022/03/02 01:04:44;;;;;;;39.67;9.95;;;;;;;0.48;100.00;98875.75;5003633;28;20725;-55
2022/03/02 01:07:10;;;;;;;29.75;9.73;;;;;;;0.48;100.00;98869.75;5004738;28;20034;-54
2022/03/02 01:09:35;;;;;;;32.63;9.50;;;;;;;0.29;100.00;98872.06;5004556;28;20034;-53
2022/03/02 01:12:01;;;;;;;31.17;9.52;;;;;;;0.30;100.00;98870.38;5004359;28;20042;-55
2022/03/02 01:14:26;;;;;;;36.65;9.77;;;;;;;0.46;100.00;98861.16;5006163;28;20022;-55
2022/03/02 01:16:52;;;;;;;25.98;8.15;;;;;;;0.87;100.00;98869.38;5005197;28;20076;-54
2022/03/02 01:19:17;;;;;;;30.27;9.13;;;;;;;0.81;100.00;98866.75;5011995;28;20103;-55
2022/03/02 01:21:42;;;;;;;30.60;8.75;;;;;;;0.74;100.00;98862.38;5004888;28;20377;-55
2022/03/02 01:24:08;;;;;;;21.65;7.82;;;;;;;1.11;100.00;98863.66;5006120;28;20034;-53
2022/03/02 01:26:36;;;;;;;30.05;9.43;;;;;;;0.69;100.00;98853.75;5005696;28;20033;-53
2022/03/02 01:29:02;;;;;;;31.52;8.48;;;;;;;0.93;100.00;98859.19;5004368;28;20044;-54
2022/03/02 01:31:28;;;;;;;27.02;8.25;;;;;;;0.84;100.00;98858.22;5005450;28;20075;-55
2022/03/02 01:33:54;;;;;;;30.30;9.30;;;;;;;0.92;100.00;98854.91;5006397;28;20034;-55
2022/03/02 01:36:21;;;;;;;29.70;8.85;;;;;;;1.13;100.00;98846.53;5002520;28;20029;-54
2022/03/02 01:38:46;;;;;;;25.85;9.07;;;;;;;0.94;100.00;98848.06;5003705;28;20087;-55
2022/03/02 01:41:14;;;;;;;26.33;7.95;;;;;;;1.18;100.00;98843.16;5006494;28;20707;-56
2022/03/02 01:43:40;;;;;;;26.67;8.48;;;;;;;1.06;100.00;98843.91;5005395;28;20034;-57
2022/03/02 01:46:06;;;;;;;26.70;8.45;;;;;;;1.50;100.00;98838.34;5007481;28;20412;-55
2022/03/02 01:48:31;;;;;;;27.77;9.80;;;;;;;1.23;100.00;98838.94;5007194;28;20028;-56
2022/03/02 01:50:56;;;;;;;25.60;9.00;;;;;;;0.67;100.00;98840.03;5005923;28;20129;-58
2022/03/02 01:53:22;;;;;;;26.02;9.15;;;;;;;0.43;100.00;98828.63;5007706;28;20030;-57
2022/03/02 01:55:47;;;;;;;30.98;9.68;;;;;;;0.52;100.00;98821.03;5008982;28;20029;-57
2022/03/02 01:58:13;;;;;;;30.92;9.52;;;;;;;0.36;100.00;98819.97;5008014;28;20345;-57
2022/03/02 02:00:38;;;;;;;27.63;9.35;;;;;;;-0.01;100.00;98823.75;5008410;28;20485;-57
2022/03/02 02:03:03;;;;;;;30.52;9.63;;;;;;;0.03;100.00;98814.41;5006991;28;20034;-56
2022/03/02 02:05:29;;;;;;;32.47;9.45;;;;;;;0.61;100.00;98820.28;5005840;28;20038;-57
2022/03/02 02:07:55;;;;;;;32.53;9.15;;;;;;;0.76;100.00;98817.03;5006359;28;20079;-56
2022/03/02 02:10:20;;;;;;;29.05;10.18;;;;;;;-0.02;100.00;98822.00;5005778;28;20740;-56
2022/03/02 02:12:46;;;;;;;28.80;9.80;;;;;;;0.27;100.00;98813.88;5006542;28;20327;-55
2022/03/02 02:15:12;;;;;;;31.08;10.50;;;;;;;0.24;100.00;98808.69;5008004;28;20033;-57
2022/03/02 02:17:37;;;;;;;30.58;10.05;;;;;;;0.30;100.00;98808.78;5006196;28;20576;-57
2022/03/02 02:20:06;;;;;;;30.33;9.77;;;;;;;0.40;100.00;98800.34;5005813;28;20025;-57
2022/03/02 02:22:32;;;;;;;28.35;9.40;;;;;;;0.58;100.00;98805.69;5008330;28;20451;-56
2022/03/02 02:24:57;;;;;;;32.00;8.63;;;;;;;1.31;100.00;98799.59;5008902;28;20037;-55
2022/03/02 02:27:23;;;;;;;26.83;9.25;;;;;;;1.59;100.00;98804.13;5006537;28;20034;-57
2022/03/02 02:29:49;;;;;;;27.25;8.98;;;;;;;1.53;100.00;98805.78;5005211;28;20087;-55
2022/03/02 02:32:15;;;;;;;30.23;9.43;;;;;;;0.79;100.00;98813.63;5005375;28;20037;-57
2022/03/02 02:34:41;;;;;;;34.47;10.60;;;;;;;0.48;100.00;98809.00;5006264;28;20021;-55
2022/03/02 02:37:07;;;;;;;34.67;10.40;;;;;;;0.84;100.00;98802.56;5002791;28;20041;-55
2022/03/02 02:39:32;;;;;;;27.52;8.90;;;;;;;0.69;100.00;98797.28;5005542;28;20034;-56
2022/03/02 02:42:09;;;;;;;27.55;9.57;;;;;;;0.65;100.00;98808.34;5004766;28;20045;-56
2022/03/02 02:44:35;;;;;;;25.95;8.18;;;;;;;1.43;100.00;98803.13;5005449;28;20925;-56
2022/03/02 02:47:00;;;;;;;32.75;9.82;;;;;;;0.90;100.00;98796.63;5004152;28;20157;-55
2022/03/02 02:49:27;;;;;;;28.80;9.27;;;;;;;0.72;100.00;98789.63;5006433;28;20131;-56
2022/03/02 02:51:53;;;;;;;33.55;10.48;;;;;;;0.86;100.00;98800.00;5008783;28;20041;-57
2022/03/02 02:54:22;;;;;;;32.70;9.25;;;;;;;0.82;100.00;98793.97;5005427;28;20113;-55
2022/03/02 02:56:47;;;;;;;26.25;9.43;;;;;;;0.81;100.00;98792.28;5005934;28;20099;-56
2022/03/02 02:59:12;;;;;;;30.05;9.63;;;;;;;0.70;100.00;98784.44;5005167;28;20033;-56
2022/03/02 03:01:38;;;;;;;18.80;7.07;;;;;;;1.88;100.00;98791.47;5004845;28;20056;-57
2022/03/02 03:04:06;;;;;;;30.35;9.77;;;;;;;1.18;100.00;98795.22;5006256;28;20065;-56
2022/03/02 03:06:31;;;;;;;28.83;8.57;;;;;;;1.57;100.00;98792.97;5006674;28;20479;-57
2022/03/02 03:08:57;;;;;;;24.90;9.05;;;;;;;0.66;100.00;98799.78;5006128;28;20587;-56
2022/03/02 03:11:22;;;;;;;28.70;9.18;;;;;;;0.15;100.00;98794.91;5005994;28;20045;-56
2022/03/02 03:13:47;;;;;;;32.13;9.30;;;;;;;-0.02;100.00;98796.34;5005699;28;20029;-56
2022/03/02 03:16:13;;;;;;;28.58;8.88;;;;;;;0.50;100.00;98786.78;5005113;28;20506;-57
2022/03/02 03:18:38;;;;;;;30.15;9.30;;;;;;;0.72;100.00;98781.91;5006410;28;20050;-55
2022/03/02 03:21:04;;;;;;;23.00;7.70;;;;;;;0.88;100.00;98788.94;5006030;28;20176;-58
2022/03/02 03:23:30;;;;;;;28.85;7.93;;;;;;;1.86;100.00;98790.63;5007532;28;20043;-56
2022/03/02 03:25:55;;;;;;;27.80;8.95;;;;;;;1.23;100.00;98790.09;5006170;28;20052;-55
2022/03/02 03:28:20;;;;;;;27.33;8.68;;;;;;;1.41;100.00;98794.53;5005111;28;20025;-58
2022/03/02 03:30:46;;;;;;;27.45;8.50;;;;;;;1.47;100.00;98782.63;5005723;28;20045;-56
2022/03/02 03:33:11;;;;;;;24.23;9.05;;;;;;;1.48;100.00;98786.88;5005586;28;20029;-55
2022/03/02 03:35:36;;;;;;;32.70;10.05;;;;;;;1.05;100.00;98780.50;5005172;28;20108;-57
2022/03/02 03:38:02;;;;;;;29.38;9.48;;;;;;;0.61;100.00;98778.34;5008024;28;20108;-56
2022/03/02 03:40:28;;;;;;;26.85;9.18;;;;;;;0.19;100.00;98767.59;5006455;28;20044;-55
2022/03/02 03:42:55;;;;;;;26.42;9.23;;;;;;;0.57;100.00;98773.19;5008566;28;20061;-56
2022/03/02 03:45:21;;;;;;;23.85;7.68;;;;;;;0.99;100.00;98773.59;5009077;28;20051;-57
2022/03/02 03:47:46;;;;;;;32.08;9.77;;;;;;;1.25;100.00;98766.16;5011221;28;20789;-55
2022/03/02 03:50:12;;;;;;;30.00;9.07;;;;;;;1.28;100.00;98761.00;5011070;28;20113;-54
2022/03/02 03:52:38;;;;;;;24.92;8.43;;;;;;;1.46;100.00;98756.88;5008102;28;20021;-55
2022/03/02 03:55:04;;;;;;;27.73;8.68;;;;;;;1.64;100.00;98751.88;5009060;28;20045;-56
2022/03/02 03:57:29;;;;;;;26.98;9.65;;;;;;;0.87;100.00;98753.81;5007217;28;20703;-56
2022/03/02 03:59:55;;;;;;;26.20;8.02;;;;;;;1.98;100.00;98757.22;5008475;28;20550;-57
2022/03/02 04:02:20;;;;;;;24.52;8.55;;;;;;;1.70;100.00;98762.19;5005654;28;20057;-56
2022/03/02 04:04:45;;;;;;;32.80;9.45;;;;;;;1.71;100.00;98758.78;5007845;28;20084;-57
2022/03/02 04:07:11;;;;;;;28.23;8.15;;;;;;;2.06;100.00;98755.56;5010235;28;20033;-54
2022/03/02 04:09:36;;;;;;;34.97;10.40;;;;;;;0.73;100.00;98747.66;5008569;28;20033;-55
2022/03/02 04:12:02;;;;;;;31.02;10.27;;;;;;;0.51;100.00;98752.56;5008737;28;20456;-57
2022/03/02 04:14:27;;;;;;;26.88;9.45;;;;;;;1.12;100.00;98738.59;5009522;28;20025;-55
2022/03/02 04:16:53;;;;;;;31.48;9.27;;;;;;;1.11;100.00;98737.75;5005949;28;20045;-57
2022/03/02 04:19:18;;;;;;;23.27;7.97;;;;;;;1.30;100.00;98743.91;5008939;28;20021;-57
2022/03/02 04:21:44;;;;;;;27.70;9.57;;;;;;;1.15;100.00;98739.50;5009732;28;20034;-56
2022/03/02 04:24:09;;;;;;;27.48;9.00;;;;;;;2.22;100.00;98740.19;5007192;28;20061;-55
2022/03/02 04:26:35;;;;;;;26.50;9.18;;;;;;;1.34;100.00;98727.66;5007692;28;20042;-57
2022/03/02 04:29:00;;;;;;;36.08;11.27;;;;;;;0.33;100.00;98721.53;5008957;28;20021;-55
2022/03/02 04:31:25;;;;;;;31.42;9.68;;;;;;;0.72;100.00;98725.41;5009527;28;20115;-55
2022/03/02 04:33:51;;;;;;;22.65;7.68;;;;;;;1.24;100.00;98720.72;5007891;28;20435;-55
2022/03/02 04:36:16;;;;;;;29.33;10.60;;;;;;;0.96;100.00;98717.94;5006120;28;20124;-55
2022/03/02 04:38:42;;;;;;;30.90;10.30;;;;;;;0.41;100.00;98713.97;5009346;28;20562;-59
2022/03/02 04:41:07;;;;;;;28.70;10.10;;;;;;;0.66;100.00;98704.78;5009818;28;20116;-57
2022/03/02 04:43:32;;;;;;;26.02;9.30;;;;;;;0.30;100.00;98696.72;5010498;28;20102;-56
2022/03/02 04:45:58;;;;;;;34.22;10.82;;;;;;;0.38;100.00;98689.09;5005743;28;20046;-58
2022/03/02 04:48:23;;;;;;;29.58;8.70;;;;;;;0.49;100.00;98692.63;5006971;28;20101;-57
2022/03/02 04:50:49;;;;;;;30.90;9.65;;;;;;;0.61;100.00;98693.59;5011181;28;20466;-56
2022/03/02 04:53:16;;;;;;;38.28;11.00;;;;;;;0.75;100.00;98684.34;5008235;28;20037;-58
2022/03/02 04:55:42;;;;;;;33.78;10.55;;;;;;;0.66;100.00;98685.13;5006909;28;20068;-56
2022/03/02 04:58:08;;;;;;;28.15;9.48;;;;;;;0.96;100.00;98689.66;5009403;28;20021;-56
2022/03/02 05:00:35;;;;;;;29.00;9.45;;;;;;;0.76;100.00;98680.94;5009352;28;20045;-56
2022/03/02 05:03:02;;;;;;;27.10;9.15;;;;;;;0.88;100.00;98675.91;5009361;28;20025;-58
2022/03/02 05:05:30;;;;;;;31.00;9.60;;;;;;;0.82;100.00;98678.41;5007591;28;20040;-57
2022/03/02 05:07:55;;;;;;;30.20;9.25;;;;;;;0.95;100.00;98687.94;5007664;28;20040;-56
2022/03/02 05:10:22;;;;;;;28.63;8.73;;;;;;;0.94;100.00;98686.22;5007111;28;20026;-55
2022/03/02 05:12:48;;;;;;;34.05;9.85;;;;;;;1.40;100.00;98690.88;5010765;28;20021;-55
2022/03/02 05:15:15;;;;;;;26.15;7.90;;;;;;;1.25;100.00;98690.75;5007196;28;20029;-56
2022/03/02 05:17:42;;;;;;;31.88;10.05;;;;;;;0.81;100.00;98689.53;5008668;28;20029;-58
2022/03/02 05:20:09;;;;;;;27.60;9.15;;;;;;;0.87;100.00;98693.88;5008918;28;20021;-55
2022/03/02 05:22:34;;;;;;;28.45;8.60;;;;;;;1.29;100.00;98693.34;5005901;28;20017;-56
2022/03/02 05:25:01;;;;;;;29.05;9.63;;;;;;;1.32;100.00;98690.81;5007158;28;20936;-56
2022/03/02 05:27:26;;;;;;;35.17;10.88;;;;;;;1.41;100.00;98691.72;5007040;28;20045;-55
2022/03/02 05:29:51;;;;;;;26.67;9.60;;;;;;;1.25;100.00;98686.47;5006266;28;20083;-57
2022/03/02 05:32:17;;;;;;;22.67;7.93;;;;;;;1.95;100.00;98690.31;5009126;28;20121;-56
2022/03/02 05:34:43;;;;;;;31.10;8.68;;;;;;;2.21;100.00;98692.16;5006651;28;20592;-55
2022/03/02 05:37:09;;;;;;;28.23;10.15;;;;;;;1.99;100.00;98686.91;5006300;28;20281;-56
2022/03/02 05:39:34;;;;;;;32.78;10.88;;;;;;;1.32;100.00;98683.09;5008553;28;20435;-55
2022/03/02 05:42:00;;;;;;;31.30;10.13;;;;;;;1.68;100.00;98684.16;5004896;28;20056;-56
2022/03/02 05:44:25;;;;;;;30.70;10.13;;;;;;;0.93;100.00;98694.78;5006584;28;20073;-57
2022/03/02 05:46:51;;;;;;;34.28;11.10;;;;;;;0.39;100.00;98698.53;5005324;28;20037;-57
2022/03/02 05:49:18;;;;;;;36.38;11.82;;;;;;;0.62;100.00;98700.47;5006950;28;20376;-57
2022/03/02 05:51:43;;;;;;;27.90;10.02;;;;;;;0.55;100.00;98697.84;5007301;28;20068;-55
2022/03/02 05:54:10;;;;;;;34.38;10.77;;;;;;;0.56;100.00;98704.69;5006974;28;20500;-56
2022/03/02 05:56:40;;;;;;;31.40;10.68;;;;;;;0.97;100.00;98695.66;5004478;28;20044;-56
2022/03/02 05:59:07;;;;;;;29.85;10.38;;;;;;;0.90;100.00;98699.91;5007838;28;20037;-58
2022/03/02 06:01:33;;;;;;;31.58;10.05;;;;;;;0.99;100.00;98690.53;5006609;28;20041;-55
2022/03/02 06:04:00;;;;;;;40.05;11.30;;;;;;;1.18;100.00;98689.84;5008319;28;20033;-57
2022/03/02 06:06:25;;;;;;;29.00;9.50;;;;;;;1.29;100.00;98702.78;5006535;28;20313;-57
2022/03/02 06:08:51;;;;;;;34.88;10.35;;;;;;;0.94;100.00;98700.78;5008677;28;20030;-57
2022/03/02 06:11:17;;;;;;;32.42;9.68;;;;;;;1.28;100.00;98707.03;5007129;28;20051;-56
2022/03/02 06:13:42;;;;;;;25.15;8.88;;;;;;;1.41;100.00;98707.16;5007249;28;20061;-56
2022/03/02 06:16:08;;;;;;;24.20;8.07;;;;;;;1.84;100.00;98710.84;5004781;28;20052;-58
2022/03/02 06:18:34;;;;;;;32.95;10.90;;;;;;;0.91;100.00;98706.75;5006504;28;20059;-56
2022/03/02 06:21:01;;;;;;;30.92;11.23;;;;;;;0.68;100.00;98713.38;5003493;28;20719;-57
2022/03/02 06:23:30;;;;;;;32.17;10.68;;;;;;;1.34;100.00;98711.38;5006978;28;20030;-55
2022/03/02 06:25:56;;;;;;;40.90;12.55;;;;;;;0.91;100.00;98711.03;5007858;28;20064;-57
2022/03/02 06:28:22;;;;;;;37.08;12.40;;;;;;;1.18;100.00;98710.41;5005650;28;20045;-55
2022/03/02 06:30:48;;;;;;;35.20;11.40;;;;;;;1.32;100.00;98719.09;5005582;28;20038;-58
2022/03/02 06:33:18;;;;;;;38.28;12.30;;;;;;;0.87;100.00;98706.72;5006191;28;20118;-56
2022/03/02 06:35:46;;;;;;;30.13;10.95;;;;;;;0.19;100.00;98717.13;5006687;28;20040;-56
2022/03/02 06:38:13;;;;;;;36.17;12.95;;;;;;;0.17;100.00;98716.25;5006633;28;20041;-56
2022/03/02 06:40:40;;;;;;;36.92;12.00;;;;;;;0.81;100.00;98710.09;5006458;28;20120;-56
2022/03/02 06:43:11;;;;;;;41.25;12.00;;;;;;;0.79;100.00;98716.94;5008672;28;20428;-58
2022/03/02 06:45:59;;;;;;;31.13;10.87;;;;;;;0.86;100.00;98716.09;5003823;28;20030;-56
2022/03/02 06:48:47;;;;;;;43.13;12.60;;;;;;;0.74;100.00;98718.59;5002471;28;20315;-56
2022/03/02 06:51:15;;;;;;;40.03;12.02;;;;;;;0.88;100.00;98717.00;5005272;28;20121;-55
2022/03/02 06:53:43;;;;;;;32.90;10.70;;;;;;;1.11;100.00;98717.19;5006672;28;20025;-57
2022/03/02 06:56:09;;;;;;;33.58;10.25;;;;;;;1.18;100.00;98720.69;5007288;28;20045;-56
2022/03/02 06:58:55;;;;;;;36.60;12.00;;;;;;;1.19;100.00;98714.69;5004219;28;20029;-58
2022/03/02 07:01:31;;;;;;;34.80;10.48;;;;;;;1.73;100.00;98718.50;5006158;28;20072;-55
2022/03/02 07:03:58;;;;;;;31.75;10.95;;;;;;;1.65;100.00;98720.16;5008381;28;20022;-56
2022/03/02 07:06:26;;;;;;;34.83;11.40;;;;;;;1.25;100.00;98719.88;5005437;28;20045;-56
2022/03/02 07:08:52;;;;;;;32.47;10.75;;;;;;;2.06;100.00;98724.69;5007055;28;20028;-59
2022/03/02 07:11:18;;;;;;;36.47;11.95;;;;;;;1.20;100.00;98724.13;5004811;28;20808;-58
2022/03/02 07:13:45;;;;;;;36.97;11.48;;;;;;;1.42;100.00;98716.59;5006260;28;20534;-57
2022/03/02 07:16:12;;;;;;;39.35;12.57;;;;;;;1.70;100.00;98713.31;5003578;28;20038;-56
2022/03/02 07:18:38;;;;;;;39.08;11.93;;;;;;;2.08;100.00;98706.69;5009283;28;20257;-57
2022/03/02 07:21:10;;;;;;;37.10;11.48;;;;;;;2.23;100.00;98701.56;5009299;28;20992;-57
2022/03/02 07:23:46;;;;;;;41.90;12.75;;;;;;;2.02;100.00;98704.94;5011622;28;21034;-57
2022/03/02 07:26:12;;;;;;;38.50;11.80;;;;;;;2.12;100.00;98704.09;5010038;28;20061;-58
2022/03/02 07:28:39;;;;;;;35.88;12.60;;;;;;;2.23;100.00;98696.44;5007555;28;20035;-56
2022/03/02 07:31:07;;;;;;;38.50;13.63;;;;;;;2.25;100.00;98693.88;5008977;28;20038;-57
2022/03/02 07:33:41;;;;;;;41.58;13.95;;;;;;;2.52;100.00;98698.25;5010081;28;20083;-56
2022/03/02 07:36:08;;;;;;;36.67;12.10;;;;;;;2.73;100.00;98696.56;5008972;28;20160;-57
2022/03/02 07:38:34;;;;;;;35.03;11.88;;;;;;;2.90;100.00;98700.00;5009498;28;20026;-56
2022/03/02 07:40:59;;;;;;;37.03;11.80;;;;;;;2.90;100.00;98702.59;5009641;28;20045;-57
2022/03/02 07:43:24;;;;;;;34.58;12.35;;;;;;;2.76;100.00;98692.28;5012298;28;20617;-58
2022/03/02 07:45:50;;;;;;;35.40;11.48;;;;;;;3.73;100.00;98693.94;5008766;28;20400;-56
2022/03/02 07:48:16;;;;;;;33.10;11.07;;;;;;;3.64;100.00;98687.94;5010751;28;20303;-56
2022/03/02 07:50:42;;;;;;;32.78;11.68;;;;;;;3.86;100.00;98695.66;5010590;28;20033;-57
2022/03/02 07:53:12;;;;;;;28.48;11.35;;;;;;;3.85;97.29;98691.34;5011448;28;20014;-58
2022/03/02 07:55:38;;;;;;;33.28;11.80;;;;;;;4.33;100.00;98694.59;5009159;28;20034;-55
2022/03/02 07:58:04;;;;;;;34.33;12.18;;;;;;;3.77;100.00;98695.66;5008129;28;20033;-57
2022/03/02 08:00:30;;;;;;;29.83;12.02;;;;;;;4.31;100.00;98695.47;5008942;28;20029;-57
2022/03/02 08:03:00;;;;;;;32.85;12.40;;;;;;;3.08;94.22;98699.16;5009659;28;20826;-56
2022/03/02 08:05:26;;;;;;;35.85;11.93;;;;;;;3.84;100.00;98694.75;5007134;28;20104;-57
2022/03/02 08:07:51;;;;;;;28.88;11.23;;;;;;;3.76;88.86;98696.53;5010006;28;20028;-58
2022/03/02 08:10:17;;;;;;;32.47;12.68;;;;;;;4.06;100.00;98700.72;5007794;28;20033;-56
2022/03/02 08:12:43;;;;;;;28.98;11.73;;;;;;;3.91;100.00;98699.03;5009746;28;20037;-57
2022/03/02 08:15:09;;;;;;;32.13;12.05;;;;;;;4.08;96.17;98700.72;5008289;28;20052;-57
2022/03/02 08:17:35;;;;;;;28.45;11.43;;;;;;;4.37;92.23;98701.44;5009049;28;20061;-57
2022/03/02 08:20:00;;;;;;;28.63;11.40;;;;;;;4.62;91.06;98704.75;5008946;28;20033;-57
2022/03/02 08:22:29;;;;;;;30.65;11.93;;;;;;;4.77;92.72;98698.63;5007495;28;20075;-57
2022/03/02 08:25:10;;;;;;;38.60;12.95;;;;;;;4.48;87.24;98700.53;5008693;28;20036;-57
2022/03/02 08:27:39;;;;;;;29.10;11.50;;;;;;;5.49;94.94;98697.22;5005887;28;20584;-57
2022/03/02 08:30:06;;;;;;;36.03;12.65;;;;;;;4.82;97.80;98696.03;5007796;28;20021;-57
2022/03/02 08:32:37;;;;;;;32.45;12.40;;;;;;;4.79;79.95;98691.72;5009109;28;20052;-56
2022/03/02 08:35:04;;;;;;;33.33;11.80;;;;;;;4.95;86.76;98683.88;5006825;28;20124;-57
2022/03/02 08:37:30;;;;;;;35.67;12.77;;;;;;;5.38;92.09;98686.09;5007424;28;20216;-56
2022/03/02 08:39:56;;;;;;;31.35;11.35;;;;;;;4.90;80.21;98688.22;5011031;28;20240;-57
2022/03/02 08:42:21;;;;;;;37.40;12.75;;;;;;;5.05;100.00;98675.16;5007232;28;20030;-56
2022/03/02 08:44:47;;;;;;;39.15;12.02;;;;;;;4.58;89.52;98671.22;5008016;28;20153;-58
2022/03/02 08:47:13;;;;;;;26.50;11.13;;;;;;;5.35;83.63;98670.63;5007271;28;20041;-57
2022/03/02 08:49:39;;;;;;;32.70;12.63;;;;;;;5.02;82.54;98670.03;5008232;28;20091;-56
2022/03/02 08:52:06;;;;;;;31.65;12.35;;;;;;;4.92;84.11;98670.97;5009366;28;20042;-57
2022/03/02 08:54:38;;;;;;;34.10;12.63;;;;;;;4.68;78.91;98665.09;5006966;28;20022;-57
2022/03/02 08:57:04;;;;;;;26.80;10.45;;;;;;;5.49;83.87;98668.75;5005213;28;20034;-58
2022/03/02 08:59:31;;;;;;;31.15;11.60;;;;;;;5.37;75.36;98659.38;5007457;28;20025;-57
2022/03/02 09:01:58;;;;;;;32.08;12.18;;;;;;;4.99;76.36;98659.72;5008708;28;20042;-56
2022/03/02 09:04:29;;;;;;;29.17;11.52;;;;;;;5.89;72.01;98663.16;5007262;28;20607;-57
2022/03/02 09:06:55;;;;;;;25.60;10.90;;;;;;;5.84;73.23;98654.56;5006936;28;20052;-57
2022/03/02 09:09:21;;;;;;;27.27;11.23;;;;;;;5.74;73.79;98655.56;5007132;28;20037;-57
2022/03/02 09:11:46;;;;;;;30.58;11.73;;;;;;;5.38;70.29;98649.88;5008591;28;20041;-57
2022/03/02 09:14:12;;;;;;;30.02;11.38;;;;;;;5.07;73.45;98657.91;5006865;28;20030;-56
2022/03/02 09:16:39;;;;;;;36.65;12.23;;;;;;;4.79;71.42;98650.38;5009642;28;20592;-58
2022/03/02 09:19:06;;;;;;;27.92;11.40;;;;;;;5.28;78.14;98643.94;5007462;28;20060;-57
2022/03/02 09:21:32;;;;;;;29.92;10.65;;;;;;;4.53;70.09;98647.13;5007560;28;20482;-56
2022/03/02 09:23:57;;;;;;;32.30;11.98;;;;;;;4.90;74.16;98652.88;5007382;28;20547;-57
2022/03/02 09:26:23;;;;;;;30.90;11.00;;;;;;;4.85;72.55;98644.31;5005795;28;20034;-57
2022/03/02 09:28:53;;;;;;;31.02;11.77;;;;;;;5.74;74.13;98640.03;5006139;28;20462;-56
2022/03/02 09:31:21;;;;;;;31.27;11.63;;;;;;;5.14;68.38;98641.47;5008077;28;20038;-56
2022/03/02 09:34:01;;;;;;;34.30;11.50;;;;;;;5.77;70.15;98642.56;5005660;28;20033;-57
2022/03/02 09:36:26;;;;;;;33.00;11.68;;;;;;;5.67;66.02;98630.63;5005828;28;20046;-58
2022/03/02 09:38:54;;;;;;;32.85;12.00;;;;;;;5.62;70.88;98642.75;5005835;28;20028;-58
2022/03/02 09:41:33;;;;;;;26.08;10.60;;;;;;;6.55;78.87;98632.97;5005380;28;20038;-59
2022/03/02 09:44:00;;;;;;;31.30;11.98;;;;;;;6.42;72.06;98631.44;5007769;28;20034;-60
2022/03/02 09:46:33;;;;;;;26.60;11.00;;;;;;;5.83;65.42;98634.75;5006018;28;20095;-59
2022/03/02 09:49:07;;;;;;;28.90;11.32;;;;;;;6.11;68.10;98637.03;5010042;28;20033;-57
2022/03/02 09:51:33;;;;;;;30.08;11.35;;;;;;;6.10;62.11;98630.13;5008504;28;20091;-58
2022/03/02 09:54:01;;;;;;;28.95;11.80;;;;;;;6.74;64.38;98630.94;5007343;28;20036;-56
2022/03/02 09:56:29;;;;;;;30.25;11.50;;;;;;;7.03;60.48;98622.72;5004708;28;20042;-59
2022/03/02 09:58:55;;;;;;;29.27;11.88;;;;;;;6.50;62.22;98629.59;5005082;28;20036;-58
2022/03/02 10:01:23;;;;;;;30.67;11.73;;;;;;;6.66;62.34;98625.91;5006501;28;20507;-59
2022/03/02 10:03:51;;;;;;;27.83;11.13;;;;;;;6.57;63.63;98628.63;5007024;28;20056;-57
2022/03/02 10:06:18;;;;;;;29.77;11.60;;;;;;;6.75;59.06;98630.09;5005003;28;20104;-56
2022/03/02 10:08:48;;;;;;;29.45;11.35;;;;;;;7.61;58.78;98617.34;5006311;28;20033;-56
2022/03/02 10:11:19;;;;;;;30.48;11.75;;;;;;;7.40;58.85;98624.66;5007664;28;20038;-57
2022/03/02 10:13:45;;;;;;;27.83;11.55;;;;;;;7.03;58.10;98625.31;5007995;28;20152;-58
2022/03/02 10:16:20;;;;;;;31.10;12.05;;;;;;;6.92;56.58;98616.84;5005935;28;20057;-57
2022/03/02 10:18:52;;;;;;;31.35;12.30;;;;;;;7.58;57.77;98623.47;5005132;28;20063;-56
2022/03/02 10:21:19;;;;;;;27.50;11.68;;;;;;;7.01;59.86;98621.88;5003773;28;20044;-56
2022/03/02 10:23:46;;;;;;;29.00;12.30;;;;;;;7.62;57.35;98614.72;5008433;28;20064;-54
2022/03/02 10:26:39;;;;;;;28.50;11.48;;;;;;;7.00;57.17;98620.16;5005168;28;20045;-56
2022/03/02 10:29:12;;;;;;;;;;;;;;;7.82;57.70;98616.09;5006616;28;20046;-57
2022/03/02 10:31:42;;;;;;;;;;;;;;;7.75;57.80;98620.53;5007614;28;19919;-58
2022/03/02 10:34:28;;;;;;;25.35;11.18;;;;;;;8.33;56.63;98620.25;5007611;28;19949;-59
2022/03/02 10:37:05;;;;;;;27.02;11.80;;;;;;;8.40;53.31;98621.78;5005027;28;20037;-55
2022/03/02 10:39:52;;;;;;;27.98;11.32;;;;;;;9.07;56.17;98622.81;5007119;28;20663;-56
2022/03/02 10:42:24;;;;;;;27.40;10.90;;;;;;;8.81;55.99;98620.03;5006999;28;20052;-58
2022/03/02 10:44:58;;;;;;;;;;;;;;;7.90;52.98;98616.78;5006294;28;20922;-56
2022/03/02 10:47:25;;;;;;;24.85;10.65;;;;;;;9.05;70.53;98609.00;5005668;28;19921;-55
2022/03/02 10:49:52;;;;;;;26.67;11.18;;;;;;;9.20;55.21;98618.16;5007292;28;20042;-55
2022/03/02 10:52:21;;;;;;;24.50;10.95;;;;;;;10.82;56.13;98604.88;5005963;28;20040;-57
2022/03/02 10:54:49;;;;;;;29.65;12.38;;;;;;;9.06;49.06;98605.53;5007727;28;20061;-55
2022/03/02 10:57:18;;;;;;;22.90;11.15;;;;;;;9.84;50.59;98612.97;5005704;28;20810;-56
2022/03/02 10:59:44;;;;;;;26.67;11.65;;;;;;;10.47;48.34;98605.09;5005378;28;20056;-56
2022/03/02 11:02:10;;;;;;;24.42;11.27;;;;;;;9.15;48.20;98598.38;5005754;28;20032;-56
2022/03/02 11:04:38;;;;;;;22.35;11.23;;;;;;;9.02;47.86;98597.81;5004261;28;20029;-56
2022/03/02 11:07:04;;;;;;;26.95;11.85;;;;;;;10.21;47.32;98590.22;5007835;28;20169;-54
2022/03/02 11:09:33;;;;;;;23.63;10.70;;;;;;;9.96;46.14;98587.47;5004981;28;20104;-57
2022/03/02 11:12:00;;;;;;;31.73;11.95;;;;;;;10.52;45.98;98584.94;5003228;28;20046;-56
2022/03/02 11:14:26;;;;;;;24.67;11.63;;;;;;;10.27;46.78;98576.13;5004914;28;20028;-57
2022/03/02 11:17:11;;;;;;;25.30;11.73;;;;;;;10.09;46.05;98573.19;5004143;28;20038;-55
2022/03/02 11:19:46;;;;;;;22.25;10.48;;;;;;;10.00;48.11;98568.25;5007638;28;20030;-56
2022/03/02 11:22:20;;;;;;;25.25;10.80;;;;;;;10.08;47.55;98571.47;5007432;28;20499;-59